Terminal Aerodrome Forecast
Issued by NWS

Home | Current Version | Previous Version | Text Only | Print | Product List | Glossary On
Versions: 1 2 3 4 5 6 7 8 9 10 11 12 13
000
FTUS45 KRIW 260500
TAFJAC
TAF
KJAC 260535Z 2606/2706 35007KT P6SM VCSH SCT030 BKN050
     FM260900 06008KT 5SM -RASN BKN020
      TEMPO 2610/2614 2SM -SN OVC008
     FM261800 VRB06KT 5SM -RASN SCT008 OVC025
     FM262200 VRB05KT P6SM VCSH BKN050
     FM270400 35007KT P6SM VCFG FEW005 BKN050
      AMD LTD TO CLD VIS AND WIND=

USA.gov is the U.S. government's official web portal to all federal, state and local government web resources and services.